Wake Island Airfield, Wake Island

7:15 AM WAKT on September 02, 2015 (GMT +1200)
Wake Island Army Air Field | | Change Station
CLOSE
Current Station
Airport
Location: Wake Island, Wake Island Army,
Elevation: 13 ft
Nearby Weather Stations

Elev 13 ft 19.28 °N, 166.64 °E | Updated 7 minutes ago

Light Rain
Light Rain
82 °F
Feels Like 92 °F
N
6
Wind Variable Wind from ESE

Today
High -- | Low -- °F
--% Chance of Precip.
Yesterday
High -- | Low -- °F
Precip. -- in
6:38 AM 7:08 PM
Waning Gibbous, 87% visible
Pressure 29.87 in
Visibility 5.0 miles
Clouds Mostly Cloudy 2100 ft
Overcast 6500 ft
Heat Index 92 °F
Dew Point 79 °F
Humidity 89%
Rainfall 0.00 in
Snow Depth Not available.
UV 0 out of 12
Pollen Not available.
Air Quality Not available.
Flu Activity Not available.
SPECI PWAK 011908Z AUTO 12005KT 8000 -RA BKN021 OVC065 28/26 A2987 RMK AO2 CIG 019V055 BKN V SCT
Pressure 29.87 in
Visibility 5.0 miles
Clouds Mostly Cloudy 2100 ft
Overcast 6500 ft
Heat Index 92 °F
Dew Point 79 °F
Humidity 89%
Rainfall 0.00 in
Snow Depth Not available.
UV 0 out of 12
Pollen Not available.
Air Quality Not available.
Flu Activity Not available.
SPECI PWAK 011908Z AUTO 12005KT 8000 -RA BKN021 OVC065 28/26 A2987 RMK AO2 CIG 019V055 BKN V SCT

10-Day Weather Forecast

×

Almanac

Astronomy

Sep. 02, 2015 Rise Set
Actual Time
Civil Twilight
Nautical Twilight
Astronomical Twilight
Moon
Length of Visible Light
Length of Day
Tomorrow will be .
, % of the Moon is Illuminated

Today's Extremes

Country Highs Country Lows

Community

WunderPhotos

Upload Photos

1,851,596 photos uploaded!

WunderBlogs® & News

Nearby

Air Quality

  Air Quality AQ Index Pollutant
Not available.

Snow Depth

Station Depth Elevation

Earthquake Activity

City Distance Mag. Time & Date
Minimum magnitude displayed is 2.5.

Coastal Water Temperatures

Place Temperature

Stations

Nearby Weather Stations

Station Location Temp. Windchill Dew Point Humidity Wind Precip. Elev Updated Type